Harrisburg, New York
Current Conditions -  °F | °C
As of 6:58 PM on Saturday 25 Oct 2014 (Local Time) from KGTB Reporting Station
Scattered Clouds Scattered Clouds  
Wind Chill: 53°   Ceiling: Unl
Heat Index: 53°   Visibility: 10mi
Dew Point: 52°   Wind: 6mph
Humidity: 94%   Direction: 260°W
Pressure: 29.54"   Gusts: NA
Location:  43.7565°N, 75.5938°W
Report Text: KGTB 252258Z AUTO 26005KT 10SM FEW021 SCT038 12/11 A2954 RMK AO2 SLP005 T01190110
Loading
Personal Weather Stations






























Interactive Weather Map New forecast layout! Learn more

10-Day Weather Forecast

Advertisements
Track Severe Weather on mobile